sensor_id;sensor_type;location;lat;lon;timestamp;temperature;humidity
21163;DHT22;10739;52.198;20.908;2023-04-04T00:00:31;0.00;99.90
21163;DHT22;10739;52.198;20.908;2023-04-04T00:02:58;0.00;99.90
21163;DHT22;10739;52.198;20.908;2023-04-04T00:05:24;0.00;99.90
21163;DHT22;10739;52.198;20.908;2023-04-04T00:07:50;0.00;99.90
21163;DHT22;10739;52.198;20.908;2023-04-04T00:10:17;-0.10;99.90
21163;DHT22;10739;52.198;20.908;2023-04-04T00:12:44;-0.10;99.90
21163;DHT22;10739;52.198;20.908;2023-04-04T00:15:11;-0.10;99.90
21163;DHT22;10739;52.198;20.908;2023-04-04T00:17:37;-0.20;99.90
21163;DHT22;10739;52.198;20.908;2023-04-04T00:20:04;-0.20;99.90
21163;DHT22;10739;52.198;20.908;2023-04-04T00:22:31;-0.30;99.90
21163;DHT22;10739;52.198;20.908;2023-04-04T00:24:57;-0.30;99.90
21163;DHT22;10739;52.198;20.908;2023-04-04T00:27:23;-0.40;99.90
21163;DHT22;10739;52.198;20.908;2023-04-04T00:29:50;-0.40;99.90
21163;DHT22;10739;52.198;20.908;2023-04-04T00:32:16;-0.50;99.90
21163;DHT22;10739;52.198;20.908;2023-04-04T00:34:42;-0.50;99.90
21163;DHT22;10739;52.198;20.908;2023-04-04T00:37:09;-0.50;99.90
21163;DHT22;10739;52.198;20.908;2023-04-04T00:39:37;-0.60;99.90
21163;DHT22;10739;52.198;20.908;2023-04-04T00:42:03;-0.60;99.90
21163;DHT22;10739;52.198;20.908;2023-04-04T00:44:31;-0.70;99.90
21163;DHT22;10739;52.198;20.908;2023-04-04T00:46:57;-0.70;99.90
21163;DHT22;10739;52.198;20.908;2023-04-04T00:49:23;-0.70;99.90
21163;DHT22;10739;52.198;20.908;2023-04-04T00:51:50;-0.80;99.90
21163;DHT22;10739;52.198;20.908;2023-04-04T00:54:16;-0.80;99.90
21163;DHT22;10739;52.198;20.908;2023-04-04T00:56:43;-0.80;99.90
21163;DHT22;10739;52.198;20.908;2023-04-04T00:59:09;-0.80;99.90
21163;DHT22;10739;52.198;20.908;2023-04-04T01:01:36;-0.90;99.90
21163;DHT22;10739;52.198;20.908;2023-04-04T01:04:03;-0.90;99.90
21163;DHT22;10739;52.198;20.908;2023-04-04T01:06:30;-0.90;99.90
21163;DHT22;10739;52.198;20.908;2023-04-04T01:08:57;-1.00;99.90
21163;DHT22;10739;52.198;20.908;2023-04-04T01:11:25;-1.00;99.90
21163;DHT22;10739;52.198;20.908;2023-04-04T01:13:53;-1.00;99.90
21163;DHT22;10739;52.198;20.908;2023-04-04T01:16:19;-1.00;99.90
21163;DHT22;10739;52.198;20.908;2023-04-04T01:18:47;-1.00;99.90
21163;DHT22;10739;52.198;20.908;2023-04-04T01:21:16;-1.00;99.90
21163;DHT22;10739;52.198;20.908;2023-04-04T01:23:48;-1.10;99.90
21163;DHT22;10739;52.198;20.908;2023-04-04T01:26:23;-1.10;99.90
21163;DHT22;10739;52.198;20.908;2023-04-04T01:28:54;-1.10;99.90
21163;DHT22;10739;52.198;20.908;2023-04-04T01:31:36;-1.10;99.90
21163;DHT22;10739;52.198;20.908;2023-04-04T01:37:17;-1.20;99.90
21163;DHT22;10739;52.198;20.908;2023-04-04T01:39:58;-1.20;99.90
21163;DHT22;10739;52.198;20.908;2023-04-04T01:42:34;-1.20;99.90
21163;DHT22;10739;52.198;20.908;2023-04-04T01:45:02;-1.30;99.90
21163;DHT22;10739;52.198;20.908;2023-04-04T01:47:37;-1.30;99.90
21163;DHT22;10739;52.198;20.908;2023-04-04T01:50:06;-1.30;99.90
21163;DHT22;10739;52.198;20.908;2023-04-04T01:52:34;-1.30;99.90
21163;DHT22;10739;52.198;20.908;2023-04-04T01:55:00;-1.30;99.90
21163;DHT22;10739;52.198;20.908;2023-04-04T01:57:29;-1.30;99.90
21163;DHT22;10739;52.198;20.908;2023-04-04T01:59:55;-1.40;99.90
21163;DHT22;10739;52.198;20.908;2023-04-04T02:02:21;-1.40;99.90
21163;DHT22;10739;52.198;20.908;2023-04-04T02:04:48;-1.40;99.90
21163;DHT22;10739;52.198;20.908;2023-04-04T02:07:14;-1.40;99.90
21163;DHT22;10739;52.198;20.908;2023-04-04T02:09:40;-1.40;99.90
21163;DHT22;10739;52.198;20.908;2023-04-04T02:12:07;-1.40;99.90
21163;DHT22;10739;52.198;20.908;2023-04-04T02:14:34;-1.50;99.90
21163;DHT22;10739;52.198;20.908;2023-04-04T02:17:01;-1.50;99.90
21163;DHT22;10739;52.198;20.908;2023-04-04T02:19:27;-1.50;99.90
21163;DHT22;10739;52.198;20.908;2023-04-04T02:21:53;-1.50;99.90
21163;DHT22;10739;52.198;20.908;2023-04-04T02:24:21;-1.50;99.90
21163;DHT22;10739;52.198;20.908;2023-04-04T02:26:47;-1.50;99.90
21163;DHT22;10739;52.198;20.908;2023-04-04T02:29:14;-1.60;99.90
21163;DHT22;10739;52.198;20.908;2023-04-04T02:31:41;-1.60;99.90
21163;DHT22;10739;52.198;20.908;2023-04-04T02:34:07;-1.60;99.90
21163;DHT22;10739;52.198;20.908;2023-04-04T02:36:33;-1.60;99.90
21163;DHT22;10739;52.198;20.908;2023-04-04T02:38:59;-1.60;99.90
21163;DHT22;10739;52.198;20.908;2023-04-04T02:41:27;-1.70;99.90
21163;DHT22;10739;52.198;20.908;2023-04-04T02:43:53;-1.70;99.90
21163;DHT22;10739;52.198;20.908;2023-04-04T02:46:19;-1.70;99.90
21163;DHT22;10739;52.198;20.908;2023-04-04T02:48:46;-1.70;99.90
21163;DHT22;10739;52.198;20.908;2023-04-04T02:51:12;-1.70;99.90
21163;DHT22;10739;52.198;20.908;2023-04-04T02:53:39;-1.80;99.90
21163;DHT22;10739;52.198;20.908;2023-04-04T02:56:05;-1.80;99.90
21163;DHT22;10739;52.198;20.908;2023-04-04T02:58:32;-1.80;99.90
21163;DHT22;10739;52.198;20.908;2023-04-04T03:00:58;-1.80;99.90
21163;DHT22;10739;52.198;20.908;2023-04-04T03:03:25;-1.80;99.90
21163;DHT22;10739;52.198;20.908;2023-04-04T03:05:52;-1.80;99.90
21163;DHT22;10739;52.198;20.908;2023-04-04T03:08:18;-1.80;99.90
21163;DHT22;10739;52.198;20.908;2023-04-04T03:10:44;-1.90;99.90
21163;DHT22;10739;52.198;20.908;2023-04-04T03:13:12;-1.90;99.90
21163;DHT22;10739;52.198;20.908;2023-04-04T03:15:38;-1.90;99.90
21163;DHT22;10739;52.198;20.908;2023-04-04T03:18:05;-1.90;99.90
21163;DHT22;10739;52.198;20.908;2023-04-04T03:20:32;-2.00;99.90
21163;DHT22;10739;52.198;20.908;2023-04-04T03:22:58;-2.00;99.90
21163;DHT22;10739;52.198;20.908;2023-04-04T03:25:24;-2.00;99.90
21163;DHT22;10739;52.198;20.908;2023-04-04T03:27:50;-2.00;99.90
21163;DHT22;10739;52.198;20.908;2023-04-04T03:30:17;-2.00;99.90
21163;DHT22;10739;52.198;20.908;2023-04-04T03:32:44;-2.00;99.90
21163;DHT22;10739;52.198;20.908;2023-04-04T03:35:10;-2.00;99.90
21163;DHT22;10739;52.198;20.908;2023-04-04T03:37:36;-2.10;99.90
21163;DHT22;10739;52.198;20.908;2023-04-04T03:40:04;-2.10;99.90
21163;DHT22;10739;52.198;20.908;2023-04-04T03:42:34;-2.10;99.90
21163;DHT22;10739;52.198;20.908;2023-04-04T03:45:00;-2.10;99.90
21163;DHT22;10739;52.198;20.908;2023-04-04T03:47:27;-2.10;99.90
21163;DHT22;10739;52.198;20.908;2023-04-04T03:49:54;-2.10;99.90
21163;DHT22;10739;52.198;20.908;2023-04-04T03:52:21;-2.10;99.90
21163;DHT22;10739;52.198;20.908;2023-04-04T03:54:47;-2.20;99.90
21163;DHT22;10739;52.198;20.908;2023-04-04T03:57:13;-2.20;99.90
21163;DHT22;10739;52.198;20.908;2023-04-04T03:59:39;-2.20;99.90
21163;DHT22;10739;52.198;20.908;2023-04-04T04:02:06;-2.20;99.90
21163;DHT22;10739;52.198;20.908;2023-04-04T04:04:32;-2.20;99.90
21163;DHT22;10739;52.198;20.908;2023-04-04T04:06:58;-2.20;99.90
21163;DHT22;10739;52.198;20.908;2023-04-04T04:09:24;-2.20;99.90
21163;DHT22;10739;52.198;20.908;2023-04-04T04:11:50;-2.20;99.90
21163;DHT22;10739;52.198;20.908;2023-04-04T04:14:16;-2.20;99.90
21163;DHT22;10739;52.198;20.908;2023-04-04T04:16:43;-2.20;99.90
21163;DHT22;10739;52.198;20.908;2023-04-04T04:19:09;-2.30;99.90
21163;DHT22;10739;52.198;20.908;2023-04-04T04:21:35;-2.30;99.90
21163;DHT22;10739;52.198;20.908;2023-04-04T04:24:01;-2.30;99.90
21163;DHT22;10739;52.198;20.908;2023-04-04T04:26:28;-2.20;99.90
21163;DHT22;10739;52.198;20.908;2023-04-04T04:28:54;-2.30;99.90
21163;DHT22;10739;52.198;20.908;2023-04-04T04:31:20;-2.20;99.90
21163;DHT22;10739;52.198;20.908;2023-04-04T04:33:47;-2.20;99.90
21163;DHT22;10739;52.198;20.908;2023-04-04T04:36:13;-2.20;99.90
21163;DHT22;10739;52.198;20.908;2023-04-04T04:38:40;-2.20;99.90
21163;DHT22;10739;52.198;20.908;2023-04-04T04:41:06;-2.20;99.90
21163;DHT22;10739;52.198;20.908;2023-04-04T04:43:33;-2.20;99.90
21163;DHT22;10739;52.198;20.908;2023-04-04T04:46:01;-2.20;99.90
21163;DHT22;10739;52.198;20.908;2023-04-04T04:48:27;-2.20;99.90
21163;DHT22;10739;52.198;20.908;2023-04-04T04:50:54;-2.20;99.90
21163;DHT22;10739;52.198;20.908;2023-04-04T04:53:20;-2.10;99.90
21163;DHT22;10739;52.198;20.908;2023-04-04T04:55:47;-2.10;99.90
21163;DHT22;10739;52.198;20.908;2023-04-04T04:58:13;-2.10;99.90
21163;DHT22;10739;52.198;20.908;2023-04-04T05:00:41;-2.10;99.90
21163;DHT22;10739;52.198;20.908;2023-04-04T05:03:08;-2.10;99.90
21163;DHT22;10739;52.198;20.908;2023-04-04T05:05:34;-2.00;99.90
21163;DHT22;10739;52.198;20.908;2023-04-04T05:08:01;-1.90;99.90
21163;DHT22;10739;52.198;20.908;2023-04-04T05:10:30;-1.90;99.90
21163;DHT22;10739;52.198;20.908;2023-04-04T05:12:56;-1.90;99.90
21163;DHT22;10739;52.198;20.908;2023-04-04T05:15:23;-1.80;99.90
21163;DHT22;10739;52.198;20.908;2023-04-04T05:17:56;-1.80;99.90
21163;DHT22;10739;52.198;20.908;2023-04-04T05:20:22;-1.70;99.90
21163;DHT22;10739;52.198;20.908;2023-04-04T05:22:49;-1.60;99.90
21163;DHT22;10739;52.198;20.908;2023-04-04T05:25:15;-1.60;99.90
21163;DHT22;10739;52.198;20.908;2023-04-04T05:27:46;-1.50;99.90
21163;DHT22;10739;52.198;20.908;2023-04-04T05:30:13;-1.50;99.90
21163;DHT22;10739;52.198;20.908;2023-04-04T05:32:39;-1.40;99.90
21163;DHT22;10739;52.198;20.908;2023-04-04T05:35:06;-1.40;99.90
21163;DHT22;10739;52.198;20.908;2023-04-04T05:37:37;-1.30;99.90
21163;DHT22;10739;52.198;20.908;2023-04-04T05:40:04;-1.20;99.90
21163;DHT22;10739;52.198;20.908;2023-04-04T05:42:31;-1.20;99.90
21163;DHT22;10739;52.198;20.908;2023-04-04T05:44:58;-1.20;99.90
21163;DHT22;10739;52.198;20.908;2023-04-04T05:47:24;-1.10;99.90
21163;DHT22;10739;52.198;20.908;2023-04-04T05:49:50;-1.00;99.90
21163;DHT22;10739;52.198;20.908;2023-04-04T05:52:17;-1.00;99.90
21163;DHT22;10739;52.198;20.908;2023-04-04T05:54:43;-0.90;99.90
21163;DHT22;10739;52.198;20.908;2023-04-04T05:57:10;-0.80;99.90
21163;DHT22;10739;52.198;20.908;2023-04-04T05:59:36;-0.80;99.90
21163;DHT22;10739;52.198;20.908;2023-04-04T06:02:03;-0.70;99.90
21163;DHT22;10739;52.198;20.908;2023-04-04T06:04:29;-0.70;99.90
21163;DHT22;10739;52.198;20.908;2023-04-04T06:06:56;-0.60;99.90
21163;DHT22;10739;52.198;20.908;2023-04-04T06:09:22;-0.60;99.90
21163;DHT22;10739;52.198;20.908;2023-04-04T06:11:48;-0.60;99.90
21163;DHT22;10739;52.198;20.908;2023-04-04T06:14:15;-0.50;99.90
21163;DHT22;10739;52.198;20.908;2023-04-04T06:16:41;-0.40;99.90
21163;DHT22;10739;52.198;20.908;2023-04-04T06:19:07;-0.30;99.90
21163;DHT22;10739;52.198;20.908;2023-04-04T06:21:34;-0.30;99.90
21163;DHT22;10739;52.198;20.908;2023-04-04T06:24:00;-0.30;99.90
21163;DHT22;10739;52.198;20.908;2023-04-04T06:26:26;-0.10;99.90
21163;DHT22;10739;52.198;20.908;2023-04-04T06:28:53;0.00;99.90
21163;DHT22;10739;52.198;20.908;2023-04-04T06:31:20;0.10;99.90
21163;DHT22;10739;52.198;20.908;2023-04-04T06:33:46;0.20;99.90
21163;DHT22;10739;52.198;20.908;2023-04-04T06:36:13;0.30;99.90
21163;DHT22;10739;52.198;20.908;2023-04-04T06:38:39;0.30;99.90
21163;DHT22;10739;52.198;20.908;2023-04-04T06:41:05;0.50;99.90
21163;DHT22;10739;52.198;20.908;2023-04-04T06:43:32;0.60;99.90
21163;DHT22;10739;52.198;20.908;2023-04-04T06:45:58;0.80;99.90
21163;DHT22;10739;52.198;20.908;2023-04-04T06:48:24;0.90;99.90
21163;DHT22;10739;52.198;20.908;2023-04-04T06:50:51;1.00;99.90
21163;DHT22;10739;52.198;20.908;2023-04-04T06:53:17;1.10;99.90
21163;DHT22;10739;52.198;20.908;2023-04-04T06:55:43;1.20;99.90
21163;DHT22;10739;52.198;20.908;2023-04-04T06:58:10;1.40;99.90
21163;DHT22;10739;52.198;20.908;2023-04-04T07:00:36;1.50;99.90
21163;DHT22;10739;52.198;20.908;2023-04-04T07:03:02;1.80;99.90
21163;DHT22;10739;52.198;20.908;2023-04-04T07:05:29;2.40;99.90
21163;DHT22;10739;52.198;20.908;2023-04-04T07:07:56;3.30;99.90
21163;DHT22;10739;52.198;20.908;2023-04-04T07:10:24;3.90;99.90
21163;DHT22;10739;52.198;20.908;2023-04-04T07:12:51;4.60;99.90
21163;DHT22;10739;52.198;20.908;2023-04-04T07:15:17;4.20;98.80
21163;DHT22;10739;52.198;20.908;2023-04-04T07:17:43;4.20;99.40
21163;DHT22;10739;52.198;20.908;2023-04-04T07:20:10;4.30;99.90
21163;DHT22;10739;52.198;20.908;2023-04-04T07:22:37;4.50;99.90
21163;DHT22;10739;52.198;20.908;2023-04-04T07:25:05;4.30;99.90
21163;DHT22;10739;52.198;20.908;2023-04-04T07:27:32;4.10;99.90
21163;DHT22;10739;52.198;20.908;2023-04-04T07:29:59;4.10;99.90
21163;DHT22;10739;52.198;20.908;2023-04-04T07:32:25;3.50;99.90
21163;DHT22;10739;52.198;20.908;2023-04-04T07:34:51;3.20;99.90
21163;DHT22;10739;52.198;20.908;2023-04-04T07:37:18;3.20;99.90
21163;DHT22;10739;52.198;20.908;2023-04-04T07:39:44;2.80;99.90
21163;DHT22;10739;52.198;20.908;2023-04-04T07:42:11;2.20;99.90
21163;DHT22;10739;52.198;20.908;2023-04-04T07:44:37;2.00;99.90
21163;DHT22;10739;52.198;20.908;2023-04-04T07:47:03;1.90;99.90
21163;DHT22;10739;52.198;20.908;2023-04-04T07:49:30;2.20;99.90
21163;DHT22;10739;52.198;20.908;2023-04-04T07:51:56;2.20;99.90
21163;DHT22;10739;52.198;20.908;2023-04-04T07:54:23;2.40;99.90
21163;DHT22;10739;52.198;20.908;2023-04-04T07:56:52;2.50;99.90
21163;DHT22;10739;52.198;20.908;2023-04-04T07:59:19;2.50;99.90
21163;DHT22;10739;52.198;20.908;2023-04-04T08:01:45;2.90;99.90
21163;DHT22;10739;52.198;20.908;2023-04-04T08:04:11;2.60;99.90
21163;DHT22;10739;52.198;20.908;2023-04-04T08:06:38;2.40;99.90
21163;DHT22;10739;52.198;20.908;2023-04-04T08:09:04;2.30;99.90
21163;DHT22;10739;52.198;20.908;2023-04-04T08:11:30;2.30;99.90
21163;DHT22;10739;52.198;20.908;2023-04-04T08:13:57;2.60;99.90
21163;DHT22;10739;52.198;20.908;2023-04-04T08:16:23;2.90;99.90
21163;DHT22;10739;52.198;20.908;2023-04-04T08:18:49;3.20;99.90
21163;DHT22;10739;52.198;20.908;2023-04-04T08:21:16;3.60;99.90
21163;DHT22;10739;52.198;20.908;2023-04-04T08:23:42;3.80;99.90
21163;DHT22;10739;52.198;20.908;2023-04-04T08:26:09;4.00;99.90
21163;DHT22;10739;52.198;20.908;2023-04-04T08:28:37;4.10;99.90
21163;DHT22;10739;52.198;20.908;2023-04-04T08:31:03;4.90;99.90
21163;DHT22;10739;52.198;20.908;2023-04-04T08:33:30;5.60;98.40
21163;DHT22;10739;52.198;20.908;2023-04-04T08:35:56;6.30;96.00
21163;DHT22;10739;52.198;20.908;2023-04-04T08:38:23;6.20;91.20
21163;DHT22;10739;52.198;20.908;2023-04-04T08:40:49;6.10;91.40
21163;DHT22;10739;52.198;20.908;2023-04-04T08:43:15;6.30;90.70
21163;DHT22;10739;52.198;20.908;2023-04-04T08:45:44;6.60;86.60
21163;DHT22;10739;52.198;20.908;2023-04-04T08:48:13;6.40;82.60
21163;DHT22;10739;52.198;20.908;2023-04-04T08:50:42;5.50;86.50
21163;DHT22;10739;52.198;20.908;2023-04-04T08:53:10;5.00;90.40
21163;DHT22;10739;52.198;20.908;2023-04-04T08:55:39;5.00;92.00
21163;DHT22;10739;52.198;20.908;2023-04-04T08:58:06;5.40;90.00
21163;DHT22;10739;52.198;20.908;2023-04-04T09:00:34;6.10;84.90
21163;DHT22;10739;52.198;20.908;2023-04-04T09:03:17;5.60;86.50
21163;DHT22;10739;52.198;20.908;2023-04-04T09:05:49;4.90;92.10
21163;DHT22;10739;52.198;20.908;2023-04-04T09:08:17;4.60;90.30
21163;DHT22;10739;52.198;20.908;2023-04-04T09:10:44;5.40;90.40
21163;DHT22;10739;52.198;20.908;2023-04-04T09:13:12;6.90;75.90
21163;DHT22;10739;52.198;20.908;2023-04-04T09:15:41;8.10;65.80
21163;DHT22;10739;52.198;20.908;2023-04-04T09:18:11;9.00;62.70
21163;DHT22;10739;52.198;20.908;2023-04-04T09:20:42;8.40;62.00
21163;DHT22;10739;52.198;20.908;2023-04-04T09:23:14;7.20;65.20
21163;DHT22;10739;52.198;20.908;2023-04-04T09:25:51;6.30;70.30
21163;DHT22;10739;52.198;20.908;2023-04-04T09:28:22;5.80;76.00
21163;DHT22;10739;52.198;20.908;2023-04-04T09:30:50;5.30;79.10
21163;DHT22;10739;52.198;20.908;2023-04-04T09:33:21;5.00;83.50
21163;DHT22;10739;52.198;20.908;2023-04-04T09:36:01;4.70;80.20
21163;DHT22;10739;52.198;20.908;2023-04-04T09:38:39;4.30;80.80
21163;DHT22;10739;52.198;20.908;2023-04-04T09:41:14;3.90;84.20
21163;DHT22;10739;52.198;20.908;2023-04-04T09:43:44;3.70;90.10
21163;DHT22;10739;52.198;20.908;2023-04-04T09:46:11;3.60;89.60
21163;DHT22;10739;52.198;20.908;2023-04-04T09:48:37;3.70;91.10
21163;DHT22;10739;52.198;20.908;2023-04-04T09:51:05;4.10;91.30
21163;DHT22;10739;52.198;20.908;2023-04-04T09:53:35;4.40;84.90
21163;DHT22;10739;52.198;20.908;2023-04-04T09:56:05;4.40;80.30
21163;DHT22;10739;52.198;20.908;2023-04-04T09:58:31;3.80;77.70
21163;DHT22;10739;52.198;20.908;2023-04-04T10:01:02;3.80;80.50
21163;DHT22;10739;52.198;20.908;2023-04-04T10:03:33;3.70;78.60
21163;DHT22;10739;52.198;20.908;2023-04-04T10:06:05;3.60;81.00
21163;DHT22;10739;52.198;20.908;2023-04-04T10:08:33;3.40;82.70
21163;DHT22;10739;52.198;20.908;2023-04-04T10:11:03;3.40;83.80
21163;DHT22;10739;52.198;20.908;2023-04-04T10:13:35;3.60;87.90
21163;DHT22;10739;52.198;20.908;2023-04-04T10:16:06;3.50;83.60
21163;DHT22;10739;52.198;20.908;2023-04-04T10:18:34;3.70;77.40
21163;DHT22;10739;52.198;20.908;2023-04-04T10:21:04;4.40;71.30
21163;DHT22;10739;52.198;20.908;2023-04-04T10:23:33;4.70;69.30
21163;DHT22;10739;52.198;20.908;2023-04-04T10:26:00;4.20;71.30
21163;DHT22;10739;52.198;20.908;2023-04-04T10:28:27;4.00;72.30
21163;DHT22;10739;52.198;20.908;2023-04-04T10:31:18;3.90;73.40
21163;DHT22;10739;52.198;20.908;2023-04-04T10:34:19;4.00;80.00
21163;DHT22;10739;52.198;20.908;2023-04-04T10:37:14;4.00;72.20
21163;DHT22;10739;52.198;20.908;2023-04-04T10:40:06;4.20;73.30
21163;DHT22;10739;52.198;20.908;2023-04-04T10:42:42;4.30;74.10
21163;DHT22;10739;52.198;20.908;2023-04-04T10:45:12;4.50;73.70
21163;DHT22;10739;52.198;20.908;2023-04-04T10:47:40;4.90;73.40
21163;DHT22;10739;52.198;20.908;2023-04-04T10:50:08;5.10;72.50
21163;DHT22;10739;52.198;20.908;2023-04-04T10:52:42;4.80;70.30
21163;DHT22;10739;52.198;20.908;2023-04-04T10:55:12;4.30;71.60
21163;DHT22;10739;52.198;20.908;2023-04-04T10:57:41;4.00;73.50
21163;DHT22;10739;52.198;20.908;2023-04-04T11:00:16;4.00;74.80
21163;DHT22;10739;52.198;20.908;2023-04-04T11:05:26;4.00;77.10
21163;DHT22;10739;52.198;20.908;2023-04-04T11:08:04;4.20;72.90
21163;DHT22;10739;52.198;20.908;2023-04-04T11:10:37;4.40;69.00
21163;DHT22;10739;52.198;20.908;2023-04-04T11:13:10;4.30;69.20
21163;DHT22;10739;52.198;20.908;2023-04-04T11:15:51;4.20;72.50
21163;DHT22;10739;52.198;20.908;2023-04-04T11:21:01;3.80;73.20
21163;DHT22;10739;52.198;20.908;2023-04-04T11:26:40;3.60;75.90
21163;DHT22;10739;52.198;20.908;2023-04-04T11:29:07;3.70;75.50
21163;DHT22;10739;52.198;20.908;2023-04-04T11:31:39;4.00;72.30
21163;DHT22;10739;52.198;20.908;2023-04-04T11:34:14;4.10;74.80
21163;DHT22;10739;52.198;20.908;2023-04-04T11:36:54;3.90;74.00
21163;DHT22;10739;52.198;20.908;2023-04-04T11:39:27;3.90;75.40
21163;DHT22;10739;52.198;20.908;2023-04-04T11:47:22;3.40;81.60
21163;DHT22;10739;52.198;20.908;2023-04-04T11:49:51;3.40;85.10
21163;DHT22;10739;52.198;20.908;2023-04-04T11:52:18;3.30;88.60
21163;DHT22;10739;52.198;20.908;2023-04-04T11:54:48;3.30;88.90
21163;DHT22;10739;52.198;20.908;2023-04-04T11:57:16;3.20;91.10
21163;DHT22;10739;52.198;20.908;2023-04-04T11:59:45;3.10;92.30
21163;DHT22;10739;52.198;20.908;2023-04-04T12:02:24;3.20;94.00
21163;DHT22;10739;52.198;20.908;2023-04-04T12:04:59;3.30;91.30
21163;DHT22;10739;52.198;20.908;2023-04-04T12:07:27;3.60;90.70
21163;DHT22;10739;52.198;20.908;2023-04-04T12:09:54;3.80;90.00
21163;DHT22;10739;52.198;20.908;2023-04-04T12:12:22;4.00;84.70
21163;DHT22;10739;52.198;20.908;2023-04-04T12:14:49;4.10;84.50
21163;DHT22;10739;52.198;20.908;2023-04-04T12:17:15;4.00;85.20
21163;DHT22;10739;52.198;20.908;2023-04-04T12:19:42;3.90;83.60
21163;DHT22;10739;52.198;20.908;2023-04-04T12:22:09;3.90;88.30
21163;DHT22;10739;52.198;20.908;2023-04-04T12:24:35;3.70;89.00
21163;DHT22;10739;52.198;20.908;2023-04-04T12:27:02;3.50;91.80
21163;DHT22;10739;52.198;20.908;2023-04-04T12:29:31;3.30;92.00
21163;DHT22;10739;52.198;20.908;2023-04-04T12:32:04;3.20;92.10
21163;DHT22;10739;52.198;20.908;2023-04-04T12:34:34;3.30;93.40
21163;DHT22;10739;52.198;20.908;2023-04-04T12:37:08;3.30;92.80
21163;DHT22;10739;52.198;20.908;2023-04-04T12:39:39;3.30;93.10
21163;DHT22;10739;52.198;20.908;2023-04-04T12:42:20;3.20;93.60
21163;DHT22;10739;52.198;20.908;2023-04-04T12:44:49;3.10;95.60
21163;DHT22;10739;52.198;20.908;2023-04-04T12:47:17;3.10;94.60
21163;DHT22;10739;52.198;20.908;2023-04-04T12:49:47;3.30;95.20
21163;DHT22;10739;52.198;20.908;2023-04-04T12:54:43;3.30;94.70
21163;DHT22;10739;52.198;20.908;2023-04-04T12:57:11;3.50;94.40
21163;DHT22;10739;52.198;20.908;2023-04-04T12:59:45;3.60;94.60
21163;DHT22;10739;52.198;20.908;2023-04-04T13:02:15;3.60;96.40
21163;DHT22;10739;52.198;20.908;2023-04-04T13:04:47;3.60;93.50
21163;DHT22;10739;52.198;20.908;2023-04-04T13:07:25;3.50;93.80
21163;DHT22;10739;52.198;20.908;2023-04-04T13:09:58;3.50;92.80
21163;DHT22;10739;52.198;20.908;2023-04-04T13:12:55;3.60;90.60
21163;DHT22;10739;52.198;20.908;2023-04-04T13:15:46;3.80;92.90
21163;DHT22;10739;52.198;20.908;2023-04-04T13:18:21;3.80;91.40
21163;DHT22;10739;52.198;20.908;2023-04-04T13:20:50;3.80;93.70
21163;DHT22;10739;52.198;20.908;2023-04-04T13:23:18;3.90;92.90
21163;DHT22;10739;52.198;20.908;2023-04-04T13:25:44;4.10;92.20
21163;DHT22;10739;52.198;20.908;2023-04-04T13:28:10;3.90;93.80
21163;DHT22;10739;52.198;20.908;2023-04-04T13:30:37;3.70;91.90
21163;DHT22;10739;52.198;20.908;2023-04-04T13:33:08;3.60;90.60
21163;DHT22;10739;52.198;20.908;2023-04-04T13:35:34;3.40;91.20
21163;DHT22;10739;52.198;20.908;2023-04-04T13:38:00;3.40;91.50
21163;DHT22;10739;52.198;20.908;2023-04-04T13:40:27;3.50;91.60
21163;DHT22;10739;52.198;20.908;2023-04-04T13:42:53;3.70;90.50
21163;DHT22;10739;52.198;20.908;2023-04-04T13:45:19;3.80;88.10
21163;DHT22;10739;52.198;20.908;2023-04-04T13:47:46;3.70;86.50
21163;DHT22;10739;52.198;20.908;2023-04-04T13:50:12;3.60;86.80
21163;DHT22;10739;52.198;20.908;2023-04-04T13:52:38;3.60;90.20
21163;DHT22;10739;52.198;20.908;2023-04-04T13:55:05;3.80;90.80
21163;DHT22;10739;52.198;20.908;2023-04-04T13:57:32;3.80;90.00
21163;DHT22;10739;52.198;20.908;2023-04-04T13:59:58;3.80;90.50
21163;DHT22;10739;52.198;20.908;2023-04-04T14:02:24;3.90;90.20
21163;DHT22;10739;52.198;20.908;2023-04-04T14:04:51;3.90;86.20
21163;DHT22;10739;52.198;20.908;2023-04-04T14:07:18;4.00;85.30
21163;DHT22;10739;52.198;20.908;2023-04-04T14:09:44;4.10;84.60
21163;DHT22;10739;52.198;20.908;2023-04-04T14:12:10;4.10;80.70
21163;DHT22;10739;52.198;20.908;2023-04-04T14:14:37;4.00;80.90
21163;DHT22;10739;52.198;20.908;2023-04-04T14:17:04;3.90;79.90
21163;DHT22;10739;52.198;20.908;2023-04-04T14:19:31;3.80;82.40
21163;DHT22;10739;52.198;20.908;2023-04-04T14:21:58;3.70;82.80
21163;DHT22;10739;52.198;20.908;2023-04-04T14:24:24;3.60;82.20
21163;DHT22;10739;52.198;20.908;2023-04-04T14:26:51;3.60;80.00
21163;DHT22;10739;52.198;20.908;2023-04-04T14:29:17;3.50;83.10
21163;DHT22;10739;52.198;20.908;2023-04-04T14:31:44;3.70;89.50
21163;DHT22;10739;52.198;20.908;2023-04-04T14:34:10;3.70;83.80
21163;DHT22;10739;52.198;20.908;2023-04-04T14:36:36;3.60;86.00
21163;DHT22;10739;52.198;20.908;2023-04-04T14:39:02;3.60;88.70
21163;DHT22;10739;52.198;20.908;2023-04-04T14:41:29;3.60;86.50
21163;DHT22;10739;52.198;20.908;2023-04-04T14:43:55;3.60;87.90
21163;DHT22;10739;52.198;20.908;2023-04-04T14:46:22;3.50;90.20
21163;DHT22;10739;52.198;20.908;2023-04-04T14:48:49;3.50;90.70
21163;DHT22;10739;52.198;20.908;2023-04-04T14:51:16;3.60;89.20
21163;DHT22;10739;52.198;20.908;2023-04-04T14:53:45;3.80;83.90
21163;DHT22;10739;52.198;20.908;2023-04-04T14:56:11;3.90;78.60
21163;DHT22;10739;52.198;20.908;2023-04-04T14:58:38;4.00;81.20
21163;DHT22;10739;52.198;20.908;2023-04-04T15:01:04;4.30;77.90
21163;DHT22;10739;52.198;20.908;2023-04-04T15:03:32;4.40;81.80
21163;DHT22;10739;52.198;20.908;2023-04-04T15:05:59;4.40;75.20
21163;DHT22;10739;52.198;20.908;2023-04-04T15:08:27;4.30;73.30
21163;DHT22;10739;52.198;20.908;2023-04-04T15:10:53;4.20;73.80
21163;DHT22;10739;52.198;20.908;2023-04-04T15:13:20;4.10;74.80
21163;DHT22;10739;52.198;20.908;2023-04-04T15:15:47;4.00;76.30
21163;DHT22;10739;52.198;20.908;2023-04-04T15:18:14;3.70;78.30
21163;DHT22;10739;52.198;20.908;2023-04-04T15:20:40;3.40;81.00
21163;DHT22;10739;52.198;20.908;2023-04-04T15:23:07;3.30;84.50
21163;DHT22;10739;52.198;20.908;2023-04-04T15:25:33;3.40;84.10
21163;DHT22;10739;52.198;20.908;2023-04-04T15:27:59;3.20;82.50
21163;DHT22;10739;52.198;20.908;2023-04-04T15:30:26;3.20;84.40
21163;DHT22;10739;52.198;20.908;2023-04-04T15:32:56;3.30;84.10
21163;DHT22;10739;52.198;20.908;2023-04-04T15:35:23;3.30;84.70
21163;DHT22;10739;52.198;20.908;2023-04-04T15:37:49;3.40;87.20
21163;DHT22;10739;52.198;20.908;2023-04-04T15:40:16;3.30;82.20
21163;DHT22;10739;52.198;20.908;2023-04-04T15:42:43;3.20;83.60
21163;DHT22;10739;52.198;20.908;2023-04-04T15:45:14;3.20;83.00
21163;DHT22;10739;52.198;20.908;2023-04-04T15:47:41;3.20;83.80
21163;DHT22;10739;52.198;20.908;2023-04-04T15:50:08;3.20;88.50